sensor_id;sensor_type;location;lat;lon;timestamp;temperature;humidity
14739;DHT22;7461;52.440;13.540;2023-04-03T00:02:26;1.50;99.90
14739;DHT22;7461;52.440;13.540;2023-04-03T00:04:55;1.50;99.90
14739;DHT22;7461;52.440;13.540;2023-04-03T00:07:22;1.50;99.90
14739;DHT22;7461;52.440;13.540;2023-04-03T00:09:48;1.50;99.90
14739;DHT22;7461;52.440;13.540;2023-04-03T00:12:15;1.50;99.90
14739;DHT22;7461;52.440;13.540;2023-04-03T00:14:42;1.50;99.90
14739;DHT22;7461;52.440;13.540;2023-04-03T00:17:09;1.50;99.90
14739;DHT22;7461;52.440;13.540;2023-04-03T00:19:36;1.50;99.90
14739;DHT22;7461;52.440;13.540;2023-04-03T00:22:04;1.40;99.90
14739;DHT22;7461;52.440;13.540;2023-04-03T00:24:31;1.40;99.90
14739;DHT22;7461;52.440;13.540;2023-04-03T00:26:58;1.40;99.90
14739;DHT22;7461;52.440;13.540;2023-04-03T00:29:25;1.40;99.90
14739;DHT22;7461;52.440;13.540;2023-04-03T00:31:52;1.40;99.90
14739;DHT22;7461;52.440;13.540;2023-04-03T00:34:19;1.40;99.90
14739;DHT22;7461;52.440;13.540;2023-04-03T00:36:46;1.40;99.90
14739;DHT22;7461;52.440;13.540;2023-04-03T00:39:14;1.40;99.90
14739;DHT22;7461;52.440;13.540;2023-04-03T00:41:41;1.40;99.90
14739;DHT22;7461;52.440;13.540;2023-04-03T00:44:21;1.40;99.90
14739;DHT22;7461;52.440;13.540;2023-04-03T00:46:49;1.40;99.90
14739;DHT22;7461;52.440;13.540;2023-04-03T00:49:16;1.30;99.90
14739;DHT22;7461;52.440;13.540;2023-04-03T00:51:43;1.30;99.90
14739;DHT22;7461;52.440;13.540;2023-04-03T00:54:10;1.30;99.90
14739;DHT22;7461;52.440;13.540;2023-04-03T00:56:38;1.30;99.90
14739;DHT22;7461;52.440;13.540;2023-04-03T00:59:09;1.30;99.90
14739;DHT22;7461;52.440;13.540;2023-04-03T01:01:37;1.20;99.90
14739;DHT22;7461;52.440;13.540;2023-04-03T01:04:05;1.20;99.90
14739;DHT22;7461;52.440;13.540;2023-04-03T01:06:34;1.20;99.90
14739;DHT22;7461;52.440;13.540;2023-04-03T01:09:03;1.20;99.90
14739;DHT22;7461;52.440;13.540;2023-04-03T01:11:30;1.20;99.90
14739;DHT22;7461;52.440;13.540;2023-04-03T01:13:58;1.10;99.90
14739;DHT22;7461;52.440;13.540;2023-04-03T01:16:25;1.10;99.90
14739;DHT22;7461;52.440;13.540;2023-04-03T01:18:53;1.10;99.90
14739;DHT22;7461;52.440;13.540;2023-04-03T01:21:56;1.10;99.90
14739;DHT22;7461;52.440;13.540;2023-04-03T01:24:33;1.10;99.90
14739;DHT22;7461;52.440;13.540;2023-04-03T01:27:03;1.10;99.90
14739;DHT22;7461;52.440;13.540;2023-04-03T01:29:32;1.10;99.90
14739;DHT22;7461;52.440;13.540;2023-04-03T01:32:02;1.10;99.90
14739;DHT22;7461;52.440;13.540;2023-04-03T01:34:31;1.10;99.90
14739;DHT22;7461;52.440;13.540;2023-04-03T01:36:58;1.00;99.90
14739;DHT22;7461;52.440;13.540;2023-04-03T01:39:24;1.00;99.90
14739;DHT22;7461;52.440;13.540;2023-04-03T01:41:51;1.00;99.90
14739;DHT22;7461;52.440;13.540;2023-04-03T01:44:18;1.00;99.90
14739;DHT22;7461;52.440;13.540;2023-04-03T01:46:45;1.00;99.90
14739;DHT22;7461;52.440;13.540;2023-04-03T01:49:14;0.90;99.90
14739;DHT22;7461;52.440;13.540;2023-04-03T01:51:41;0.90;99.90
14739;DHT22;7461;52.440;13.540;2023-04-03T01:54:08;0.90;99.90
14739;DHT22;7461;52.440;13.540;2023-04-03T01:56:35;0.90;99.90
14739;DHT22;7461;52.440;13.540;2023-04-03T01:59:02;0.90;99.90
14739;DHT22;7461;52.440;13.540;2023-04-03T02:01:28;0.90;99.90
14739;DHT22;7461;52.440;13.540;2023-04-03T02:03:55;0.90;99.90
14739;DHT22;7461;52.440;13.540;2023-04-03T02:06:24;0.90;99.90
14739;DHT22;7461;52.440;13.540;2023-04-03T02:08:51;0.90;99.90
14739;DHT22;7461;52.440;13.540;2023-04-03T02:11:18;0.90;99.90
14739;DHT22;7461;52.440;13.540;2023-04-03T02:13:45;0.80;99.90
14739;DHT22;7461;52.440;13.540;2023-04-03T02:16:12;0.80;99.90
14739;DHT22;7461;52.440;13.540;2023-04-03T02:18:39;0.80;99.90
14739;DHT22;7461;52.440;13.540;2023-04-03T02:21:06;0.70;99.90
14739;DHT22;7461;52.440;13.540;2023-04-03T02:23:34;0.70;99.90
14739;DHT22;7461;52.440;13.540;2023-04-03T02:26:04;0.70;99.90
14739;DHT22;7461;52.440;13.540;2023-04-03T02:28:31;0.70;99.90
14739;DHT22;7461;52.440;13.540;2023-04-03T02:30:58;0.70;99.90
14739;DHT22;7461;52.440;13.540;2023-04-03T02:33:25;0.70;99.90
14739;DHT22;7461;52.440;13.540;2023-04-03T02:35:53;0.70;99.90
14739;DHT22;7461;52.440;13.540;2023-04-03T02:38:21;0.70;99.90
14739;DHT22;7461;52.440;13.540;2023-04-03T02:40:49;0.70;99.90
14739;DHT22;7461;52.440;13.540;2023-04-03T02:46:38;0.60;99.90
14739;DHT22;7461;52.440;13.540;2023-04-03T02:49:05;0.60;99.90
14739;DHT22;7461;52.440;13.540;2023-04-03T02:51:32;0.60;99.90
14739;DHT22;7461;52.440;13.540;2023-04-03T02:53:59;0.60;99.90
14739;DHT22;7461;52.440;13.540;2023-04-03T02:56:28;0.60;99.90
14739;DHT22;7461;52.440;13.540;2023-04-03T02:58:55;0.60;99.90
14739;DHT22;7461;52.440;13.540;2023-04-03T03:01:22;0.60;99.90
14739;DHT22;7461;52.440;13.540;2023-04-03T03:03:49;0.60;99.90
14739;DHT22;7461;52.440;13.540;2023-04-03T03:06:16;0.60;99.90
14739;DHT22;7461;52.440;13.540;2023-04-03T03:08:43;0.60;99.90
14739;DHT22;7461;52.440;13.540;2023-04-03T03:11:11;0.60;99.90
14739;DHT22;7461;52.440;13.540;2023-04-03T03:13:39;0.60;99.90
14739;DHT22;7461;52.440;13.540;2023-04-03T03:16:07;0.60;99.90
14739;DHT22;7461;52.440;13.540;2023-04-03T03:18:55;0.60;99.90
14739;DHT22;7461;52.440;13.540;2023-04-03T03:21:22;0.60;99.90
14739;DHT22;7461;52.440;13.540;2023-04-03T03:23:49;0.60;99.90
14739;DHT22;7461;52.440;13.540;2023-04-03T03:26:16;0.50;99.90
14739;DHT22;7461;52.440;13.540;2023-04-03T03:28:44;0.60;99.90
14739;DHT22;7461;52.440;13.540;2023-04-03T03:31:11;0.50;99.90
14739;DHT22;7461;52.440;13.540;2023-04-03T03:33:38;0.60;99.90
14739;DHT22;7461;52.440;13.540;2023-04-03T03:36:06;0.60;99.90
14739;DHT22;7461;52.440;13.540;2023-04-03T03:38:33;0.50;99.90
14739;DHT22;7461;52.440;13.540;2023-04-03T03:41:00;0.50;99.90
14739;DHT22;7461;52.440;13.540;2023-04-03T03:43:28;0.50;99.90
14739;DHT22;7461;52.440;13.540;2023-04-03T03:45:56;0.50;99.90
14739;DHT22;7461;52.440;13.540;2023-04-03T03:48:23;0.40;99.90
14739;DHT22;7461;52.440;13.540;2023-04-03T03:50:50;0.40;99.90
14739;DHT22;7461;52.440;13.540;2023-04-03T03:53:17;0.40;99.90
14739;DHT22;7461;52.440;13.540;2023-04-03T03:55:44;0.40;99.90
14739;DHT22;7461;52.440;13.540;2023-04-03T03:58:11;0.40;99.90
14739;DHT22;7461;52.440;13.540;2023-04-03T04:00:38;0.40;99.90
14739;DHT22;7461;52.440;13.540;2023-04-03T04:03:07;0.40;99.90
14739;DHT22;7461;52.440;13.540;2023-04-03T04:05:35;0.30;99.90
14739;DHT22;7461;52.440;13.540;2023-04-03T04:11:24;0.30;99.90
14739;DHT22;7461;52.440;13.540;2023-04-03T04:13:52;0.30;99.90
14739;DHT22;7461;52.440;13.540;2023-04-03T04:16:19;0.30;99.90
14739;DHT22;7461;52.440;13.540;2023-04-03T04:18:47;0.30;99.90
14739;DHT22;7461;52.440;13.540;2023-04-03T04:21:14;0.30;99.90
14739;DHT22;7461;52.440;13.540;2023-04-03T04:23:41;0.30;99.90
14739;DHT22;7461;52.440;13.540;2023-04-03T04:26:08;0.30;99.90
14739;DHT22;7461;52.440;13.540;2023-04-03T04:28:35;0.30;99.90
14739;DHT22;7461;52.440;13.540;2023-04-03T04:31:02;0.30;99.90
14739;DHT22;7461;52.440;13.540;2023-04-03T04:33:29;0.30;99.90
14739;DHT22;7461;52.440;13.540;2023-04-03T04:35:58;0.30;99.90
14739;DHT22;7461;52.440;13.540;2023-04-03T04:38:27;0.30;99.90
14739;DHT22;7461;52.440;13.540;2023-04-03T04:40:54;0.30;99.90
14739;DHT22;7461;52.440;13.540;2023-04-03T04:43:21;0.30;99.90
14739;DHT22;7461;52.440;13.540;2023-04-03T04:45:48;0.20;99.90
14739;DHT22;7461;52.440;13.540;2023-04-03T04:48:15;0.20;99.90
14739;DHT22;7461;52.440;13.540;2023-04-03T04:50:42;0.20;99.90
14739;DHT22;7461;52.440;13.540;2023-04-03T04:53:13;0.20;99.90
14739;DHT22;7461;52.440;13.540;2023-04-03T04:55:40;0.20;99.90
14739;DHT22;7461;52.440;13.540;2023-04-03T04:58:07;0.20;99.90
14739;DHT22;7461;52.440;13.540;2023-04-03T05:00:34;0.20;99.90
14739;DHT22;7461;52.440;13.540;2023-04-03T05:03:01;0.20;99.90
14739;DHT22;7461;52.440;13.540;2023-04-03T05:05:28;0.20;99.90
14739;DHT22;7461;52.440;13.540;2023-04-03T05:07:55;0.20;99.90
14739;DHT22;7461;52.440;13.540;2023-04-03T05:10:23;0.30;99.90
14739;DHT22;7461;52.440;13.540;2023-04-03T05:12:50;0.30;99.90
14739;DHT22;7461;52.440;13.540;2023-04-03T05:15:17;0.30;99.90
14739;DHT22;7461;52.440;13.540;2023-04-03T05:17:44;0.30;99.90
14739;DHT22;7461;52.440;13.540;2023-04-03T05:20:12;0.30;99.90
14739;DHT22;7461;52.440;13.540;2023-04-03T05:22:39;0.30;99.90
14739;DHT22;7461;52.440;13.540;2023-04-03T05:25:06;0.40;99.90
14739;DHT22;7461;52.440;13.540;2023-04-03T05:27:35;0.40;99.90
14739;DHT22;7461;52.440;13.540;2023-04-03T05:30:03;0.40;99.90
14739;DHT22;7461;52.440;13.540;2023-04-03T05:32:30;0.50;99.90
14739;DHT22;7461;52.440;13.540;2023-04-03T05:34:57;0.50;99.90
14739;DHT22;7461;52.440;13.540;2023-04-03T05:37:24;0.50;99.90
14739;DHT22;7461;52.440;13.540;2023-04-03T05:39:51;0.50;99.90
14739;DHT22;7461;52.440;13.540;2023-04-03T05:42:19;0.60;99.90
14739;DHT22;7461;52.440;13.540;2023-04-03T05:44:47;0.60;99.90
14739;DHT22;7461;52.440;13.540;2023-04-03T05:47:15;0.60;99.90
14739;DHT22;7461;52.440;13.540;2023-04-03T05:49:42;0.60;99.90
14739;DHT22;7461;52.440;13.540;2023-04-03T05:52:18;0.70;99.90
14739;DHT22;7461;52.440;13.540;2023-04-03T05:54:46;0.80;99.90
14739;DHT22;7461;52.440;13.540;2023-04-03T05:57:13;0.80;99.90
14739;DHT22;7461;52.440;13.540;2023-04-03T05:59:41;0.90;99.90
14739;DHT22;7461;52.440;13.540;2023-04-03T06:02:11;0.90;99.90
14739;DHT22;7461;52.440;13.540;2023-04-03T06:04:39;1.00;99.90
14739;DHT22;7461;52.440;13.540;2023-04-03T06:07:07;1.00;99.90
14739;DHT22;7461;52.440;13.540;2023-04-03T06:09:36;1.10;99.90
14739;DHT22;7461;52.440;13.540;2023-04-03T06:12:03;1.10;99.90
14739;DHT22;7461;52.440;13.540;2023-04-03T06:17:54;1.30;99.90
14739;DHT22;7461;52.440;13.540;2023-04-03T06:20:22;1.40;99.90
14739;DHT22;7461;52.440;13.540;2023-04-03T06:22:49;1.40;99.90
14739;DHT22;7461;52.440;13.540;2023-04-03T06:25:16;1.50;99.90
14739;DHT22;7461;52.440;13.540;2023-04-03T06:27:44;1.50;99.90
14739;DHT22;7461;52.440;13.540;2023-04-03T06:30:12;1.50;99.90
14739;DHT22;7461;52.440;13.540;2023-04-03T06:32:39;1.60;99.90
14739;DHT22;7461;52.440;13.540;2023-04-03T06:35:08;1.70;99.90
14739;DHT22;7461;52.440;13.540;2023-04-03T06:37:36;1.80;99.90
14739;DHT22;7461;52.440;13.540;2023-04-03T06:40:03;1.80;99.90
14739;DHT22;7461;52.440;13.540;2023-04-03T06:42:31;1.90;99.90
14739;DHT22;7461;52.440;13.540;2023-04-03T06:44:58;2.00;99.90
14739;DHT22;7461;52.440;13.540;2023-04-03T06:47:26;2.00;99.90
14739;DHT22;7461;52.440;13.540;2023-04-03T06:49:52;2.00;99.90
14739;DHT22;7461;52.440;13.540;2023-04-03T06:52:21;2.10;99.90
14739;DHT22;7461;52.440;13.540;2023-04-03T06:54:48;2.10;99.90
14739;DHT22;7461;52.440;13.540;2023-04-03T06:57:17;2.10;99.90
14739;DHT22;7461;52.440;13.540;2023-04-03T06:59:45;2.20;99.90
14739;DHT22;7461;52.440;13.540;2023-04-03T07:02:12;2.20;99.90
14739;DHT22;7461;52.440;13.540;2023-04-03T07:04:39;2.20;99.90
14739;DHT22;7461;52.440;13.540;2023-04-03T07:07:06;2.30;99.90
14739;DHT22;7461;52.440;13.540;2023-04-03T07:09:34;2.30;99.90
14739;DHT22;7461;52.440;13.540;2023-04-03T07:12:02;2.40;99.90
14739;DHT22;7461;52.440;13.540;2023-04-03T07:14:29;2.50;99.90
14739;DHT22;7461;52.440;13.540;2023-04-03T07:16:56;2.50;99.90
14739;DHT22;7461;52.440;13.540;2023-04-03T07:19:22;2.50;99.90
14739;DHT22;7461;52.440;13.540;2023-04-03T07:21:52;2.50;99.90
14739;DHT22;7461;52.440;13.540;2023-04-03T07:24:20;2.50;99.90
14739;DHT22;7461;52.440;13.540;2023-04-03T07:26:51;2.50;99.90
14739;DHT22;7461;52.440;13.540;2023-04-03T07:29:18;2.50;99.90
14739;DHT22;7461;52.440;13.540;2023-04-03T07:31:47;2.60;99.90
14739;DHT22;7461;52.440;13.540;2023-04-03T07:34:14;2.50;99.90
14739;DHT22;7461;52.440;13.540;2023-04-03T07:36:41;2.60;99.90
14739;DHT22;7461;52.440;13.540;2023-04-03T07:39:08;2.60;99.90
14739;DHT22;7461;52.440;13.540;2023-04-03T07:41:36;2.60;99.90
14739;DHT22;7461;52.440;13.540;2023-04-03T07:44:05;2.60;99.90
14739;DHT22;7461;52.440;13.540;2023-04-03T07:46:35;2.60;99.90
14739;DHT22;7461;52.440;13.540;2023-04-03T07:49:02;2.60;99.90
14739;DHT22;7461;52.440;13.540;2023-04-03T07:51:29;2.60;99.90
14739;DHT22;7461;52.440;13.540;2023-04-03T07:53:56;2.60;99.90
14739;DHT22;7461;52.440;13.540;2023-04-03T07:56:23;2.60;99.90
14739;DHT22;7461;52.440;13.540;2023-04-03T07:58:50;2.70;99.90
14739;DHT22;7461;52.440;13.540;2023-04-03T08:01:19;2.80;99.90
14739;DHT22;7461;52.440;13.540;2023-04-03T08:03:46;2.80;99.90
14739;DHT22;7461;52.440;13.540;2023-04-03T08:06:13;2.90;99.90
14739;DHT22;7461;52.440;13.540;2023-04-03T08:08:40;2.90;99.90
14739;DHT22;7461;52.440;13.540;2023-04-03T08:11:07;2.90;99.90
14739;DHT22;7461;52.440;13.540;2023-04-03T08:13:34;3.00;99.90
14739;DHT22;7461;52.440;13.540;2023-04-03T08:16:08;3.00;99.90
14739;DHT22;7461;52.440;13.540;2023-04-03T08:18:36;3.10;99.90
14739;DHT22;7461;52.440;13.540;2023-04-03T08:21:07;3.20;99.90
14739;DHT22;7461;52.440;13.540;2023-04-03T08:23:34;3.30;99.90
14739;DHT22;7461;52.440;13.540;2023-04-03T08:26:06;3.40;99.90
14739;DHT22;7461;52.440;13.540;2023-04-03T08:28:33;3.40;99.90
14739;DHT22;7461;52.440;13.540;2023-04-03T08:31:03;3.50;99.90
14739;DHT22;7461;52.440;13.540;2023-04-03T08:33:31;3.50;99.90
14739;DHT22;7461;52.440;13.540;2023-04-03T08:35:59;3.60;99.90
14739;DHT22;7461;52.440;13.540;2023-04-03T08:38:28;3.50;99.90
14739;DHT22;7461;52.440;13.540;2023-04-03T08:41:05;3.50;99.90
14739;DHT22;7461;52.440;13.540;2023-04-03T08:43:38;3.70;99.90
14739;DHT22;7461;52.440;13.540;2023-04-03T08:46:11;4.00;99.90
14739;DHT22;7461;52.440;13.540;2023-04-03T08:48:41;4.20;99.30
14739;DHT22;7461;52.440;13.540;2023-04-03T08:51:13;4.10;95.90
14739;DHT22;7461;52.440;13.540;2023-04-03T08:53:44;4.10;95.80
14739;DHT22;7461;52.440;13.540;2023-04-03T08:56:13;4.20;94.70
14739;DHT22;7461;52.440;13.540;2023-04-03T08:58:47;4.20;95.00
14739;DHT22;7461;52.440;13.540;2023-04-03T09:01:19;4.30;94.50
14739;DHT22;7461;52.440;13.540;2023-04-03T09:03:47;4.40;93.00
14739;DHT22;7461;52.440;13.540;2023-04-03T09:06:20;4.30;93.30
14739;DHT22;7461;52.440;13.540;2023-04-03T09:08:51;4.20;93.00
14739;DHT22;7461;52.440;13.540;2023-04-03T09:11:24;4.10;94.20
14739;DHT22;7461;52.440;13.540;2023-04-03T09:13:56;4.10;94.80
14739;DHT22;7461;52.440;13.540;2023-04-03T09:16:43;4.10;95.50
14739;DHT22;7461;52.440;13.540;2023-04-03T09:19:18;4.10;95.00
14739;DHT22;7461;52.440;13.540;2023-04-03T09:21:50;4.00;95.30
14739;DHT22;7461;52.440;13.540;2023-04-03T09:24:17;4.00;95.60
14739;DHT22;7461;52.440;13.540;2023-04-03T09:26:48;4.00;94.80
14739;DHT22;7461;52.440;13.540;2023-04-03T09:29:20;3.90;94.10
14739;DHT22;7461;52.440;13.540;2023-04-03T09:31:49;4.00;92.60
14739;DHT22;7461;52.440;13.540;2023-04-03T09:34:20;4.00;91.10
14739;DHT22;7461;52.440;13.540;2023-04-03T09:36:52;4.00;92.30
14739;DHT22;7461;52.440;13.540;2023-04-03T09:39:21;4.10;90.00
14739;DHT22;7461;52.440;13.540;2023-04-03T09:42:00;4.10;86.80
14739;DHT22;7461;52.440;13.540;2023-04-03T09:44:29;4.20;87.90
14739;DHT22;7461;52.440;13.540;2023-04-03T09:46:57;4.20;89.70
14739;DHT22;7461;52.440;13.540;2023-04-03T09:49:24;4.20;87.00
14739;DHT22;7461;52.440;13.540;2023-04-03T09:51:53;4.30;89.60
14739;DHT22;7461;52.440;13.540;2023-04-03T09:54:41;4.30;90.00
14739;DHT22;7461;52.440;13.540;2023-04-03T09:57:10;4.40;88.90
14739;DHT22;7461;52.440;13.540;2023-04-03T09:59:46;4.50;89.70
14739;DHT22;7461;52.440;13.540;2023-04-03T10:02:27;4.60;87.80
14739;DHT22;7461;52.440;13.540;2023-04-03T10:04:56;4.60;89.10
14739;DHT22;7461;52.440;13.540;2023-04-03T10:07:31;4.50;87.00
14739;DHT22;7461;52.440;13.540;2023-04-03T10:09:59;4.50;86.70
14739;DHT22;7461;52.440;13.540;2023-04-03T10:12:28;4.50;86.90
14739;DHT22;7461;52.440;13.540;2023-04-03T10:14:57;4.40;87.80
14739;DHT22;7461;52.440;13.540;2023-04-03T10:17:48;4.50;90.90
14739;DHT22;7461;52.440;13.540;2023-04-03T10:20:29;4.40;91.10
14739;DHT22;7461;52.440;13.540;2023-04-03T10:23:11;4.40;90.80
14739;DHT22;7461;52.440;13.540;2023-04-03T10:25:46;4.30;91.60
14739;DHT22;7461;52.440;13.540;2023-04-03T10:28:20;4.30;91.50
14739;DHT22;7461;52.440;13.540;2023-04-03T10:30:58;4.50;91.60
14739;DHT22;7461;52.440;13.540;2023-04-03T10:33:51;4.50;92.00
14739;DHT22;7461;52.440;13.540;2023-04-03T10:36:29;4.50;91.20
14739;DHT22;7461;52.440;13.540;2023-04-03T10:39:08;4.60;90.80
14739;DHT22;7461;52.440;13.540;2023-04-03T10:41:55;4.70;89.70
14739;DHT22;7461;52.440;13.540;2023-04-03T10:44:30;4.70;90.90
14739;DHT22;7461;52.440;13.540;2023-04-03T10:47:03;4.60;90.80
14739;DHT22;7461;52.440;13.540;2023-04-03T10:49:44;4.60;90.70
14739;DHT22;7461;52.440;13.540;2023-04-03T10:52:17;4.70;91.40
14739;DHT22;7461;52.440;13.540;2023-04-03T10:54:55;4.70;91.20
14739;DHT22;7461;52.440;13.540;2023-04-03T10:57:25;4.70;92.20
14739;DHT22;7461;52.440;13.540;2023-04-03T10:59:56;4.70;91.20
14739;DHT22;7461;52.440;13.540;2023-04-03T11:02:28;4.70;89.10
14739;DHT22;7461;52.440;13.540;2023-04-03T11:05:00;4.70;90.80
14739;DHT22;7461;52.440;13.540;2023-04-03T11:07:32;4.70;89.60
14739;DHT22;7461;52.440;13.540;2023-04-03T11:10:05;4.70;91.60
14739;DHT22;7461;52.440;13.540;2023-04-03T11:12:38;4.70;90.20
14739;DHT22;7461;52.440;13.540;2023-04-03T11:15:12;4.70;91.10
14739;DHT22;7461;52.440;13.540;2023-04-03T11:17:45;4.50;91.10
14739;DHT22;7461;52.440;13.540;2023-04-03T11:20:17;4.50;91.60
14739;DHT22;7461;52.440;13.540;2023-04-03T11:22:48;4.50;91.20
14739;DHT22;7461;52.440;13.540;2023-04-03T11:25:20;4.50;92.50
14739;DHT22;7461;52.440;13.540;2023-04-03T11:27:52;4.50;93.40
14739;DHT22;7461;52.440;13.540;2023-04-03T11:30:23;4.50;93.40
14739;DHT22;7461;52.440;13.540;2023-04-03T11:36:00;4.60;93.00
14739;DHT22;7461;52.440;13.540;2023-04-03T11:38:33;4.60;93.80
14739;DHT22;7461;52.440;13.540;2023-04-03T11:41:05;4.70;92.50
14739;DHT22;7461;52.440;13.540;2023-04-03T11:43:33;4.70;93.90
14739;DHT22;7461;52.440;13.540;2023-04-03T11:46:07;4.70;93.70
14739;DHT22;7461;52.440;13.540;2023-04-03T11:48:49;4.80;94.10
14739;DHT22;7461;52.440;13.540;2023-04-03T11:51:42;4.80;91.50
14739;DHT22;7461;52.440;13.540;2023-04-03T11:54:35;4.80;91.30
14739;DHT22;7461;52.440;13.540;2023-04-03T12:12:35;5.30;88.60
14739;DHT22;7461;52.440;13.540;2023-04-03T12:15:25;5.20;87.30
14739;DHT22;7461;52.440;13.540;2023-04-03T12:17:52;5.00;90.30
14739;DHT22;7461;52.440;13.540;2023-04-03T12:23:33;4.90;91.00
14739;DHT22;7461;52.440;13.540;2023-04-03T12:26:22;4.90;92.20
14739;DHT22;7461;52.440;13.540;2023-04-03T12:28:54;4.80;92.30
14739;DHT22;7461;52.440;13.540;2023-04-03T12:31:31;4.80;92.90
14739;DHT22;7461;52.440;13.540;2023-04-03T12:34:09;4.90;93.10
14739;DHT22;7461;52.440;13.540;2023-04-03T12:36:46;4.90;92.70
14739;DHT22;7461;52.440;13.540;2023-04-03T12:39:33;4.90;92.10
14739;DHT22;7461;52.440;13.540;2023-04-03T12:45:00;5.00;90.20
14739;DHT22;7461;52.440;13.540;2023-04-03T12:47:32;5.00;87.00
14739;DHT22;7461;52.440;13.540;2023-04-03T12:50:02;5.00;86.80
14739;DHT22;7461;52.440;13.540;2023-04-03T12:52:36;4.90;86.20
14739;DHT22;7461;52.440;13.540;2023-04-03T12:55:14;4.90;88.00
14739;DHT22;7461;52.440;13.540;2023-04-03T12:57:41;4.90;88.30
14739;DHT22;7461;52.440;13.540;2023-04-03T13:00:32;4.90;87.50
14739;DHT22;7461;52.440;13.540;2023-04-03T13:03:01;4.90;89.50
14739;DHT22;7461;52.440;13.540;2023-04-03T13:05:30;5.00;89.50
14739;DHT22;7461;52.440;13.540;2023-04-03T13:08:01;5.00;90.10
14739;DHT22;7461;52.440;13.540;2023-04-03T13:10:29;5.00;89.10
14739;DHT22;7461;52.440;13.540;2023-04-03T13:12:58;5.00;90.20
14739;DHT22;7461;52.440;13.540;2023-04-03T13:15:27;5.10;91.40
14739;DHT22;7461;52.440;13.540;2023-04-03T13:17:56;5.20;91.60
14739;DHT22;7461;52.440;13.540;2023-04-03T13:20:26;5.30;90.10
14739;DHT22;7461;52.440;13.540;2023-04-03T13:22:57;5.20;88.10
14739;DHT22;7461;52.440;13.540;2023-04-03T13:25:28;5.30;89.90
14739;DHT22;7461;52.440;13.540;2023-04-03T13:27:57;5.40;90.30
14739;DHT22;7461;52.440;13.540;2023-04-03T13:30:28;5.40;88.10
14739;DHT22;7461;52.440;13.540;2023-04-03T13:32:59;5.60;90.10
14739;DHT22;7461;52.440;13.540;2023-04-03T13:35:29;5.70;90.40
14739;DHT22;7461;52.440;13.540;2023-04-03T13:37:59;5.70;88.10
14739;DHT22;7461;52.440;13.540;2023-04-03T13:40:26;5.60;87.30
14739;DHT22;7461;52.440;13.540;2023-04-03T13:43:02;5.50;87.30
14739;DHT22;7461;52.440;13.540;2023-04-03T13:45:31;5.40;89.20
14739;DHT22;7461;52.440;13.540;2023-04-03T13:48:17;5.30;88.80
14739;DHT22;7461;52.440;13.540;2023-04-03T13:51:03;5.30;90.60
14739;DHT22;7461;52.440;13.540;2023-04-03T13:53:32;5.30;91.00
14739;DHT22;7461;52.440;13.540;2023-04-03T13:56:08;5.20;91.00
14739;DHT22;7461;52.440;13.540;2023-04-03T13:58:37;5.30;91.70
14739;DHT22;7461;52.440;13.540;2023-04-03T14:01:11;5.30;91.10
14739;DHT22;7461;52.440;13.540;2023-04-03T14:03:46;5.30;92.40
14739;DHT22;7461;52.440;13.540;2023-04-03T14:06:15;5.40;92.40
14739;DHT22;7461;52.440;13.540;2023-04-03T14:08:43;5.30;91.50
14739;DHT22;7461;52.440;13.540;2023-04-03T14:11:14;5.30;91.70
14739;DHT22;7461;52.440;13.540;2023-04-03T14:13:42;5.40;91.20
14739;DHT22;7461;52.440;13.540;2023-04-03T14:16:13;5.40;92.70
14739;DHT22;7461;52.440;13.540;2023-04-03T14:18:44;5.50;91.10
14739;DHT22;7461;52.440;13.540;2023-04-03T14:21:12;5.50;91.60
14739;DHT22;7461;52.440;13.540;2023-04-03T14:23:39;5.50;90.90
14739;DHT22;7461;52.440;13.540;2023-04-03T14:26:10;5.50;91.10
14739;DHT22;7461;52.440;13.540;2023-04-03T14:28:38;5.40;91.20
14739;DHT22;7461;52.440;13.540;2023-04-03T14:31:06;5.50;92.40
14739;DHT22;7461;52.440;13.540;2023-04-03T14:33:33;5.40;92.30
14739;DHT22;7461;52.440;13.540;2023-04-03T14:36:10;5.40;93.20
14739;DHT22;7461;52.440;13.540;2023-04-03T14:38:41;5.40;92.50
14739;DHT22;7461;52.440;13.540;2023-04-03T14:41:10;5.50;92.30
14739;DHT22;7461;52.440;13.540;2023-04-03T14:43:39;5.50;92.90
14739;DHT22;7461;52.440;13.540;2023-04-03T14:46:12;5.50;91.70
14739;DHT22;7461;52.440;13.540;2023-04-03T14:48:39;5.50;92.40
14739;DHT22;7461;52.440;13.540;2023-04-03T14:51:09;5.40;93.30
14739;DHT22;7461;52.440;13.540;2023-04-03T14:53:37;5.30;93.00
14739;DHT22;7461;52.440;13.540;2023-04-03T14:56:10;5.30;92.90
14739;DHT22;7461;52.440;13.540;2023-04-03T14:58:37;5.30;93.50
14739;DHT22;7461;52.440;13.540;2023-04-03T15:01:04;5.20;93.60
14739;DHT22;7461;52.440;13.540;2023-04-03T15:03:31;5.20;93.70
14739;DHT22;7461;52.440;13.540;2023-04-03T15:05:58;5.20;94.30
14739;DHT22;7461;52.440;13.540;2023-04-03T15:08:27;5.20;95.70
14739;DHT22;7461;52.440;13.540;2023-04-03T15:10:57;5.10;95.40
14739;DHT22;7461;52.440;13.540;2023-04-03T15:13:24;5.10;95.30
14739;DHT22;7461;52.440;13.540;2023-04-03T15:15:52;5.00;96.00
14739;DHT22;7461;52.440;13.540;2023-04-03T15:18:21;5.00;96.40
14739;DHT22;7461;52.440;13.540;2023-04-03T15:20:49;5.00;96.80
14739;DHT22;7461;52.440;13.540;2023-04-03T15:23:16;5.00;97.40
14739;DHT22;7461;52.440;13.540;2023-04-03T15:25:46;4.90;97.80
14739;DHT22;7461;52.440;13.540;2023-04-03T15:28:18;5.00;98.60
14739;DHT22;7461;52.440;13.540;2023-04-03T15:30:46;4.90;98.30
14739;DHT22;7461;52.440;13.540;2023-04-03T15:33:13;4.90;97.10
14739;DHT22;7461;52.440;13.540;2023-04-03T15:35:41;4.80;98.20
14739;DHT22;7461;52.440;13.540;2023-04-03T15:38:08;4.90;98.10
14739;DHT22;7461;52.440;13.540;2023-04-03T15:40:35;4.90;98.10
14739;DHT22;7461;52.440;13.540;2023-04-03T15:43:05;4.90;98.30
14739;DHT22;7461;52.440;13.540;2023-04-03T15:45:33;4.90;97.50
14739;DHT22;7461;52.440;13.540;2023-04-03T15:48:01;4.80;96.60
14739;DHT22;7461;52.440;13.540;2023-04-03T15:50:29;4.80;97.60
14739;DHT22;7461;52.440;13.540;2023-04-03T15:52:56;4.80;98.60
14739;DHT22;7461;52.440;13.540;2023-04-03T15:55:25;4.80;97.30
14739;DHT22;7461;52.440;13.540;2023-04-03T15:57:52;4.70;96.60
14739;DHT22;7461;52.440;13.540;2023-04-03T16:00:21;4.70;97.20
14739;DHT22;7461;52.440;13.540;2023-04-03T16:02:52;4.70;98.00
14739;DHT22;7461;52.440;13.540;2023-04-03T16:05:20;4.70;98.70
14739;DHT22;7461;52.440;13.540;2023-04-03T16:07:47;4.70;99.00
14739;DHT22;7461;52.440;13.540;2023-04-03T16:10:16;4.60;98.90
14739;DHT22;7461;52.440;13.540;2023-04-03T16:12:44;4.60;98.10
14739;DHT22;7461;52.440;13.540;2023-04-03T16:15:11;4.60;98.30
14739;DHT22;7461;52.440;13.540;2023-04-03T16:17:40;4.60;97.90
14739;DHT22;7461;52.440;13.540;2023-04-03T16:20:08;4.60;97.80
14739;DHT22;7461;52.440;13.540;2023-04-03T16:22:36;4.70;98.30
14739;DHT22;7461;52.440;13.540;2023-04-03T16:25:04;4.70;97.10
14739;DHT22;7461;52.440;13.540;2023-04-03T16:27:31;4.70;96.70
14739;DHT22;7461;52.440;13.540;2023-04-03T16:29:58;4.80;96.90
14739;DHT22;7461;52.440;13.540;2023-04-03T16:32:29;4.80;96.80
14739;DHT22;7461;52.440;13.540;2023-04-03T16:34:58;4.90;97.80
14739;DHT22;7461;52.440;13.540;2023-04-03T16:37:25;4.90;97.20